This is the latest recevied weather packets stored in our database for station/object TA2NC-13. If no packets are shown the sender has not sent any weather packets the latest 10 day(s).
| Time | Temp. | Humidity | Pressure | Rain* | Wind** | Luminosity | Snow |
|---|---|---|---|---|---|---|---|
| 1777834200 | 5.56° C | 88% | 1003 hPa | 0 mm | - | - | - |
| 1777833601 | 5.56° C | 88% | 1003 hPa | 0 mm | - | - | - |
| 1777833001 | 5.56° C | 87% | 1003 hPa | 0 mm | - | - | - |
| 1777832400 | 5.56° C | 87% | 1003 hPa | 0 mm | - | - | - |
| 1777831800 | 5.56° C | 86% | 1003 hPa | 0 mm | - | - | - |
| 1777831200 | 5.56° C | 85% | 1003 hPa | 0 mm | - | - | - |
| 1777830600 | 5.56° C | 85% | 1003 hPa | 0 mm | - | - | - |
| 1777830000 | 6.11° C | 82% | 1003 hPa | 0 mm | - | - | - |
| 1777829401 | 6.11° C | 80% | 1003 hPa | 0 mm | - | - | - |
| 1777828800 | 6.67° C | 79% | 1003 hPa | 0 mm | - | - | - |
| 1777828200 | 6.67° C | 81% | 1003 hPa | 0 mm | - | - | - |
| 1777827600 | 6.67° C | 79% | 1003 hPa | 0 mm | - | - | - |
| 1777827000 | 6.67° C | 78% | 1003 hPa | 0 mm | - | - | - |
| 1777826400 | 7.22° C | 76% | 1004.5 hPa | 0 mm | - | - | - |
| 1777825800 | 6.67° C | 77% | 1004.5 hPa | 0 mm | - | - | - |
| 1777825202 | 7.22° C | 77% | 1004.5 hPa | 0 mm | - | - | - |
| 1777824600 | 6.67° C | 78% | 1004.5 hPa | 0 mm | - | - | - |
| 1777824000 | 6.67° C | 79% | 1004.5 hPa | 0 mm | - | - | - |
| 1777823401 | 7.22° C | 78% | 1004.5 hPa | 0 mm | - | - | - |
| 1777822801 | 7.22° C | 75% | 1004.5 hPa | 0 mm | - | - | - |
| 1777822201 | 7.78° C | 72% | 1004.5 hPa | 0 mm | - | - | - |
| 1777821600 | 7.78° C | 72% | 1006 hPa | 0 mm | - | - | - |
| 1777821001 | 7.78° C | 71% | 1006 hPa | 0 mm | - | - | - |
| 1777820400 | 7.78° C | 71% | 1006 hPa | 0 mm | - | - | - |
| 1777819800 | 8.33° C | 70% | 1006 hPa | 0 mm | - | - | - |
* Rain latest hour (hover to see other rain measurements)
** Current wind speed in m/s (hover to see current wind gust speed)